Time;durP1;ratioP1;P1;durP2;ratioP2;P2;SDS_P1;SDS_P2;PMS_P1;PMS_P2;Temp;Humidity;BMP_temperature;BMP_pressure;BME280_temperature;BME280_humidity;BME280_pressure;Samples;Min_cycle;Max_cycle;Signal;HPM_P1;HPM_P2
2022/02/22 00:00:35;;;;;;;6.10;3.50;;;;;;;4.70;75.35;97452.83;104876;1274;62982;-23
2022/02/22 00:03:03;;;;;;;5.20;3.60;;;;;;;4.75;74.73;97450.55;104914;1273;74022;-23
2022/02/22 00:05:32;;;;;;;5.60;3.40;;;;;;;4.54;74.84;97446.90;104700;1273;76015;-23
2022/02/22 00:08:00;;;;;;;6.80;3.70;;;;;;;4.29;75.53;97441.54;104845;1274;74449;-23
2022/02/22 00:10:29;;;;;;;5.60;3.70;;;;;;;4.04;76.11;97448.04;104948;1273;61054;-23
2022/02/22 00:12:57;;;;;;;6.80;4.10;;;;;;;3.82;76.74;97452.37;105101;1273;61346;-23
2022/02/22 00:15:27;;;;;;;7.00;4.00;;;;;;;3.60;77.52;97451.83;105007;1274;74487;-23
2022/02/22 00:17:56;;;;;;;5.60;3.30;;;;;;;3.43;78.62;97451.59;105097;1274;75032;-23
2022/02/22 00:20:24;;;;;;;5.50;3.50;;;;;;;3.84;77.93;97458.54;104827;1274;74508;-23
2022/02/22 00:22:53;;;;;;;4.60;2.80;;;;;;;4.39;75.71;97465.14;104721;1273;61812;-24
2022/02/22 00:25:21;;;;;;;6.50;3.50;;;;;;;4.43;74.95;97467.06;104889;1274;61769;-23
2022/02/22 00:27:50;;;;;;;5.60;3.40;;;;;;;4.23;75.20;97468.66;104814;1274;75510;-23
2022/02/22 00:30:19;;;;;;;9.10;3.40;;;;;;;3.91;75.96;97468.77;104790;1274;75818;-23
2022/02/22 00:32:48;;;;;;;6.20;3.80;;;;;;;3.62;76.70;97468.48;105136;1273;74413;-23
2022/02/22 00:35:17;;;;;;;6.00;3.50;;;;;;;3.33;77.84;97467.98;104948;1274;61290;-23
2022/02/22 00:37:45;;;;;;;5.10;3.10;;;;;;;3.08;78.65;97465.54;104923;1274;61051;-23
2022/02/22 00:40:13;;;;;;;7.20;3.20;;;;;;;3.44;78.29;97462.84;104973;1274;75488;-23
2022/02/22 00:42:55;;;;;;;6.70;4.00;;;;;;;3.96;76.05;97464.13;104611;1278;74570;-22
2022/02/22 00:45:23;;;;;;;5.50;3.60;;;;;;;3.87;75.59;97467.04;104616;1277;74516;-24
2022/02/22 00:47:54;;;;;;;5.90;3.40;;;;;;;3.59;76.31;97470.92;104475;1278;61170;-23
2022/02/22 00:50:22;;;;;;;4.00;3.00;;;;;;;3.25;77.33;97477.80;104673;1278;61048;-23
2022/02/22 00:52:53;;;;;;;6.10;3.40;;;;;;;2.95;78.38;97478.23;104666;1277;74329;-24
2022/02/22 00:55:42;;;;;;;5.90;3.60;;;;;;;2.66;79.66;97476.94;104538;1277;75985;-24
2022/02/22 00:58:11;;;;;;;7.20;3.50;;;;;;;2.45;80.79;97474.52;104456;1281;74269;-24
2022/02/22 01:00:39;;;;;;;4.80;2.80;;;;;;;2.95;79.58;97484.34;104443;1281;61608;-24
2022/02/22 01:03:07;;;;;;;7.90;3.60;;;;;;;3.40;77.16;97491.63;104462;1281;61841;-24
2022/02/22 01:05:37;;;;;;;5.50;3.40;;;;;;;3.35;76.64;97494.25;104462;1281;75646;-24
2022/02/22 01:08:05;;;;;;;6.60;3.40;;;;;;;3.10;77.03;97497.17;104477;1281;76546;-24
2022/02/22 01:10:34;;;;;;;6.30;3.90;;;;;;;2.80;77.80;97494.86;104431;1281;73199;-24
2022/02/22 01:13:03;;;;;;;5.40;3.10;;;;;;;2.54;78.62;97492.36;104187;1281;61069;-24
2022/02/22 01:15:31;;;;;;;6.40;3.70;;;;;;;2.29;79.49;97487.63;104206;1281;62747;-24
2022/02/22 01:18:00;;;;;;;3.30;2.20;;;;;;;2.08;80.25;97481.40;104164;1281;75369;-24
2022/02/22 01:20:29;;;;;;;6.50;3.30;;;;;;;2.49;79.59;97482.55;104301;1275;75749;-24
2022/02/22 01:22:58;;;;;;;7.30;3.50;;;;;;;3.01;77.17;97486.52;104626;1274;74720;-24
2022/02/22 01:25:26;;;;;;;5.70;3.50;;;;;;;3.01;76.45;97481.90;104674;1274;61309;-24
2022/02/22 01:27:55;;;;;;;9.60;3.80;;;;;;;2.76;76.92;97482.52;104611;1276;61234;-24
2022/02/22 01:30:24;;;;;;;6.10;3.30;;;;;;;2.46;77.83;97482.64;104737;1274;74551;-24
2022/02/22 01:32:52;;;;;;;5.40;3.40;;;;;;;2.14;78.76;97482.17;104687;1274;74119;-22
2022/02/22 01:35:21;;;;;;;5.50;3.20;;;;;;;1.86;79.86;97484.85;104703;1274;74705;-23
2022/02/22 01:37:49;;;;;;;7.90;3.20;;;;;;;1.64;80.76;97487.41;105018;1273;62015;-23
2022/02/22 01:40:18;;;;;;;5.10;3.20;;;;;;;2.03;80.07;97493.38;105044;1273;62654;-23
2022/02/22 01:42:46;;;;;;;6.60;3.40;;;;;;;2.60;77.61;97498.42;105063;1273;74189;-23
2022/02/22 01:45:17;;;;;;;5.00;3.00;;;;;;;2.65;76.65;97502.49;104877;1273;75952;-23
2022/02/22 01:47:45;;;;;;;6.20;3.20;;;;;;;2.47;76.87;97507.79;105039;1273;74344;-22
2022/02/22 01:50:13;;;;;;;6.60;3.30;;;;;;;2.18;77.64;97498.58;104791;1273;61020;-22
2022/02/22 01:52:42;;;;;;;5.90;3.40;;;;;;;1.88;78.44;97494.27;105043;1273;61028;-23
2022/02/22 01:55:15;;;;;;;;;;;;;;;1.61;79.08;97491.55;104840;1273;75385;-23
2022/02/22 01:57:45;;;;;;;8.00;3.70;;;;;;;1.36;80.54;97496.54;104789;1274;74789;-23
2022/02/22 02:00:15;;;;;;;9.00;3.10;;;;;;;1.16;81.19;97493.43;104533;1275;74474;-22
2022/02/22 02:02:44;;;;;;;5.90;3.80;;;;;;;1.62;80.53;97492.15;104715;1273;61077;-23
2022/02/22 02:05:14;;;;;;;7.20;3.60;;;;;;;2.21;78.11;97490.23;104985;1273;61138;-23
2022/02/22 02:07:42;;;;;;;6.10;3.60;;;;;;;2.29;77.36;97492.13;104982;1273;74741;-23
2022/02/22 02:10:10;;;;;;;6.60;3.10;;;;;;;2.12;77.37;97493.63;105039;1273;76026;-22
2022/02/22 02:12:39;;;;;;;5.30;2.60;;;;;;;1.88;77.74;97492.46;104992;1273;74672;-23
2022/02/22 02:15:08;;;;;;;5.30;3.10;;;;;;;1.61;78.05;97492.58;104764;1274;61141;-23
2022/02/22 02:17:36;;;;;;;7.50;3.70;;;;;;;1.37;78.61;97493.85;104825;1274;61213;-23
2022/02/22 02:20:07;;;;;;;5.00;2.40;;;;;;;1.17;79.33;97500.18;105062;1273;75538;-23
2022/02/22 02:22:38;;;;;;;6.00;2.50;;;;;;;1.57;79.29;97507.89;105031;1273;73264;-23
2022/02/22 02:25:07;;;;;;;6.30;2.70;;;;;;;2.15;77.24;97511.94;104997;1273;74442;-23
2022/02/22 02:27:35;;;;;;;4.50;2.10;;;;;;;2.19;76.59;97509.42;105096;1273;61181;-22
2022/02/22 02:30:05;;;;;;;3.80;2.60;;;;;;;1.97;77.16;97511.51;104770;1273;61750;-23
2022/02/22 02:32:33;;;;;;;5.30;2.30;;;;;;;1.72;77.74;97511.81;104793;1273;75466;-23
2022/02/22 02:35:03;;;;;;;6.70;3.10;;;;;;;1.47;78.24;97510.16;105085;1273;74721;-23
2022/02/22 02:37:35;;;;;;;4.50;2.30;;;;;;;1.19;79.75;97511.87;105004;1273;74748;-23
2022/02/22 02:40:05;;;;;;;3.30;2.20;;;;;;;1.11;81.24;97515.11;104986;1273;62923;-23
2022/02/22 02:42:42;;;;;;;5.10;2.30;;;;;;;1.76;78.97;97517.17;104792;1273;61122;-23
2022/02/22 02:45:11;;;;;;;4.00;2.50;;;;;;;2.09;77.62;97511.66;104833;1274;75393;-23
2022/02/22 02:47:39;;;;;;;5.60;2.40;;;;;;;2.01;77.26;97511.17;104927;1273;75832;-23
2022/02/22 02:50:09;;;;;;;4.70;2.90;;;;;;;1.78;76.53;97515.86;104946;1273;73124;-23
2022/02/22 02:52:38;;;;;;;6.80;3.40;;;;;;;1.39;76.72;97519.07;104921;1273;61314;-23
2022/02/22 02:55:07;;;;;;;6.20;3.20;;;;;;;0.95;77.47;97520.94;105142;1273;61041;-23
2022/02/22 02:57:36;;;;;;;7.90;3.30;;;;;;;0.53;78.15;97524.20;104960;1273;74215;-23
2022/02/22 03:00:05;;;;;;;6.70;3.10;;;;;;;0.19;79.19;97520.39;105136;1272;75961;-23
2022/02/22 03:02:35;;;;;;;10.80;5.10;;;;;;;0.49;79.41;97523.95;104993;1273;73330;-23
2022/02/22 03:05:04;;;;;;;5.80;2.70;;;;;;;0.91;78.20;97525.98;104920;1273;61034;-23
2022/02/22 03:07:32;;;;;;;8.80;4.10;;;;;;;0.83;77.96;97526.71;104804;1273;61144;-23
2022/02/22 03:10:01;;;;;;;7.40;3.50;;;;;;;0.56;78.72;97533.02;104857;1271;74373;-23
2022/02/22 03:12:32;;;;;;;5.40;2.60;;;;;;;0.27;80.04;97536.97;104907;1273;74633;-23
2022/02/22 03:15:00;;;;;;;4.30;1.90;;;;;;;0.07;82.01;97544.50;105089;1273;74621;-23
2022/02/22 03:17:29;;;;;;;5.00;2.10;;;;;;;0.14;83.02;97544.06;105098;1273;61867;-23
2022/02/22 03:19:58;;;;;;;2.90;2.50;;;;;;;0.69;81.88;97551.73;105106;1273;61217;-23
2022/02/22 03:22:26;;;;;;;4.30;2.00;;;;;;;0.91;81.24;97553.73;105022;1273;75549;-24
2022/02/22 03:24:54;;;;;;;3.80;1.90;;;;;;;0.85;80.89;97553.41;105005;1273;74747;-24
2022/02/22 03:27:22;;;;;;;2.70;1.60;;;;;;;0.70;81.36;97557.45;104993;1273;74346;-23
2022/02/22 03:29:51;;;;;;;4.90;2.80;;;;;;;0.55;82.13;97560.62;104736;1272;62752;-24
2022/02/22 03:32:19;;;;;;;4.30;2.70;;;;;;;0.99;80.80;97563.73;105068;1271;61146;-24
2022/02/22 03:34:47;;;;;;;2.60;1.50;;;;;;;1.25;79.30;97569.42;105069;1272;74690;-23
2022/02/22 03:37:16;;;;;;;4.60;1.70;;;;;;;1.19;79.30;97572.39;105127;1273;75151;-24
2022/02/22 03:39:44;;;;;;;6.00;3.60;;;;;;;0.87;80.09;97573.43;105004;1273;73154;-24
2022/02/22 03:42:12;;;;;;;2.60;2.20;;;;;;;0.48;82.20;97576.07;104772;1273;61031;-23
2022/02/22 03:44:40;;;;;;;6.40;3.50;;;;;;;0.53;82.10;97576.45;104956;1273;62148;-23
2022/02/22 03:47:09;;;;;;;6.50;2.70;;;;;;;0.94;81.08;97577.25;104887;1273;75493;-24
2022/02/22 03:49:37;;;;;;;3.90;2.40;;;;;;;0.98;80.42;97581.73;105083;1273;75999;-23
2022/02/22 03:52:06;;;;;;;6.10;3.10;;;;;;;0.74;80.89;97585.70;104854;1273;73491;-23
2022/02/22 03:54:34;;;;;;;8.10;3.90;;;;;;;0.49;81.66;97587.48;104611;1274;61300;-24
2022/02/22 03:57:03;;;;;;;6.40;2.70;;;;;;;0.35;81.83;97588.48;104789;1273;61043;-24
2022/02/22 03:59:32;;;;;;;5.60;2.40;;;;;;;0.56;81.49;97590.75;104674;1273;75671;-24
2022/02/22 04:02:00;;;;;;;7.20;3.90;;;;;;;1.03;79.66;97589.34;104822;1273;76097;-23
2022/02/22 04:04:29;;;;;;;5.60;3.60;;;;;;;1.15;78.58;97586.64;104979;1273;74384;-23
2022/02/22 04:06:57;;;;;;;5.80;3.30;;;;;;;1.00;78.20;97590.69;104985;1273;61265;-23
2022/02/22 04:09:26;;;;;;;8.10;3.30;;;;;;;0.74;78.75;97593.39;104930;1273;61157;-23
2022/02/22 04:11:54;;;;;;;8.90;3.60;;;;;;;0.49;79.13;97592.45;105094;1273;75573;-23
2022/02/22 04:14:22;;;;;;;6.90;3.60;;;;;;;0.39;80.14;97596.48;104845;1273;76286;-24
2022/02/22 04:16:51;;;;;;;6.90;3.50;;;;;;;0.89;78.88;97594.81;105091;1273;74247;-23
2022/02/22 04:19:20;;;;;;;6.50;3.50;;;;;;;1.13;77.39;97592.77;105134;1273;61142;-23
2022/02/22 04:21:49;;;;;;;7.30;3.40;;;;;;;0.99;77.55;97596.04;105028;1273;62198;-23
2022/02/22 04:24:17;;;;;;;4.30;2.40;;;;;;;0.61;78.92;97598.30;104886;1273;75584;-24
2022/02/22 04:26:45;;;;;;;5.50;2.20;;;;;;;0.40;79.64;97599.66;104730;1273;209405;-24
2022/02/22 04:29:14;;;;;;;6.90;3.00;;;;;;;0.33;80.42;97602.30;105006;1273;74580;-23
2022/02/22 04:31:42;;;;;;;5.90;3.30;;;;;;;0.74;78.68;97605.38;105053;1273;60993;-22
2022/02/22 04:34:10;;;;;;;6.30;3.70;;;;;;;0.87;77.90;97609.66;105089;1273;61029;-22
2022/02/22 04:36:39;;;;;;;6.80;3.90;;;;;;;0.75;78.03;97607.70;105006;1273;74739;-22
2022/02/22 04:39:07;;;;;;;4.40;3.00;;;;;;;0.51;78.31;97604.60;105086;1273;76151;-24
2022/02/22 04:41:35;;;;;;;6.50;3.10;;;;;;;0.27;79.44;97608.46;104854;1273;73307;-23
2022/02/22 04:44:04;;;;;;;8.60;3.30;;;;;;;0.25;79.86;97607.06;105106;1273;61698;-23
2022/02/22 04:46:33;;;;;;;7.50;2.80;;;;;;;0.72;78.19;97607.52;104818;1273;61791;-22
2022/02/22 04:49:01;;;;;;;5.30;3.10;;;;;;;0.83;77.28;97614.23;104920;1273;74296;-24
2022/02/22 04:51:30;;;;;;;6.50;2.90;;;;;;;0.68;77.71;97611.89;105083;1273;75248;-22
2022/02/22 04:53:58;;;;;;;6.80;3.20;;;;;;;0.45;78.18;97618.11;105076;1273;74447;-23
2022/02/22 04:56:27;;;;;;;4.50;2.70;;;;;;;0.22;79.35;97621.42;104893;1273;61034;-22
2022/02/22 04:59:17;;;;;;;3.90;2.20;;;;;;;0.26;79.69;97625.27;104835;1274;61274;-22
2022/02/22 05:01:47;;;;;;;4.30;2.70;;;;;;;0.69;78.05;97624.12;104713;1274;75647;-22
2022/02/22 05:04:15;;;;;;;7.10;2.80;;;;;;;0.77;77.53;97626.70;104700;1274;74354;-22
2022/02/22 05:06:44;;;;;;;4.10;2.50;;;;;;;0.66;77.71;97626.17;104586;1274;74593;-22
2022/02/22 05:09:12;;;;;;;6.80;3.10;;;;;;;0.40;78.71;97624.27;104648;1274;61125;-22
2022/02/22 05:11:41;;;;;;;8.10;2.70;;;;;;;0.18;79.81;97627.77;104630;1274;61745;-23
2022/02/22 05:14:10;;;;;;;4.20;2.60;;;;;;;0.43;79.06;97629.52;104332;1274;74620;-22
2022/02/22 05:16:40;;;;;;;6.20;3.30;;;;;;;0.91;77.41;97627.15;104747;1274;75826;-24
2022/02/22 05:19:08;;;;;;;8.20;3.50;;;;;;;0.99;76.33;97630.23;105061;1273;74305;-24
2022/02/22 05:21:37;;;;;;;2.60;1.80;;;;;;;0.78;76.44;97632.10;104988;1273;61062;-24
2022/02/22 05:24:07;;;;;;;6.90;3.00;;;;;;;0.46;76.99;97637.36;104697;1273;61051;-25
2022/02/22 05:26:36;;;;;;;7.60;3.30;;;;;;;0.12;78.01;97638.44;104882;1273;74183;-24
2022/02/22 05:29:24;;;;;;;4.30;2.70;;;;;;;0.02;78.88;97635.28;104614;1276;77085;-24
2022/02/22 05:31:53;;;;;;;4.70;3.20;;;;;;;0.43;77.64;97635.13;104340;1276;74385;-23
2022/02/22 05:34:21;;;;;;;5.70;3.00;;;;;;;0.51;77.68;97639.27;104436;1276;62264;-22
2022/02/22 05:36:50;;;;;;;3.50;2.10;;;;;;;0.41;77.88;97639.54;104436;1276;61167;-23
2022/02/22 05:39:19;;;;;;;6.60;3.10;;;;;;;0.26;78.61;97639.95;104517;1276;75703;-23
2022/02/22 05:41:48;;;;;;;9.40;4.20;;;;;;;0.04;79.13;97638.54;104414;1276;76049;-23
2022/02/22 05:44:16;;;;;;;10.90;4.20;;;;;;;-0.01;79.57;97642.92;104448;1276;74245;-23
2022/02/22 05:46:44;;;;;;;10.60;4.60;;;;;;;0.56;78.29;97646.80;104300;1276;61194;-23
2022/02/22 05:49:13;;;;;;;4.60;3.20;;;;;;;0.84;77.20;97647.46;104825;1273;62037;-22
2022/02/22 05:51:41;;;;;;;6.30;4.00;;;;;;;0.73;77.04;97649.35;104759;1273;75336;-23
2022/02/22 05:54:09;;;;;;;6.40;3.70;;;;;;;0.48;77.89;97650.73;104738;1273;74951;-23
2022/02/22 05:56:38;;;;;;;11.60;4.70;;;;;;;0.32;78.52;97657.34;104862;1273;73456;-23
2022/02/22 05:59:06;;;;;;;9.70;4.70;;;;;;;0.21;79.07;97659.55;105074;1272;61128;-24
2022/02/22 06:01:35;;;;;;;8.30;4.20;;;;;;;0.54;78.71;97663.52;105145;1273;61023;-23
2022/02/22 06:04:04;;;;;;;9.70;4.70;;;;;;;1.02;77.00;97664.45;105091;1273;74173;-24
2022/02/22 06:06:32;;;;;;;8.60;3.60;;;;;;;1.03;76.22;97668.45;105005;1273;76012;-23
2022/02/22 06:09:01;;;;;;;6.00;3.10;;;;;;;0.91;76.68;97671.27;105157;1273;72191;-23
2022/02/22 06:11:29;;;;;;;6.90;3.80;;;;;;;0.77;77.20;97671.48;105072;1273;61247;-23
2022/02/22 06:14:35;;;;;;;5.90;3.00;;;;;;;0.68;77.45;97673.92;104449;1281;61145;-23
2022/02/22 06:17:04;;;;;;;7.10;3.00;;;;;;;1.06;77.13;97675.77;104452;1281;75622;-24
2022/02/22 06:19:32;;;;;;;6.50;4.20;;;;;;;1.70;74.42;97681.54;104331;1281;75897;-23
2022/02/22 06:22:00;;;;;;;7.80;4.00;;;;;;;1.94;73.42;97683.91;104464;1281;74581;-22
2022/02/22 06:24:29;;;;;;;6.70;3.30;;;;;;;1.87;73.23;97690.17;104486;1281;61191;-23
2022/02/22 06:26:57;;;;;;;8.10;3.60;;;;;;;1.71;73.25;97687.80;104532;1281;61105;-23
2022/02/22 06:29:26;;;;;;;6.50;2.60;;;;;;;1.59;73.74;97691.47;104333;1281;74036;-22
2022/02/22 06:31:55;;;;;;;7.70;4.30;;;;;;;1.50;74.07;97687.98;104172;1276;75957;-22
2022/02/22 06:34:24;;;;;;;3.80;1.90;;;;;;;1.58;74.31;97693.79;104559;1276;74621;-23
2022/02/22 06:36:53;;;;;;;5.00;2.90;;;;;;;2.30;72.35;97692.25;104539;1275;61147;-23
2022/02/22 06:39:22;;;;;;;4.20;2.50;;;;;;;2.74;69.72;97690.48;104435;1276;61054;-23
2022/02/22 06:41:50;;;;;;;7.70;2.20;;;;;;;2.96;68.95;97692.04;104577;1276;75782;-24
2022/02/22 06:44:18;;;;;;;3.80;2.30;;;;;;;2.95;68.25;97693.71;104531;1276;74900;-25
2022/02/22 06:46:47;;;;;;;4.30;2.50;;;;;;;2.76;68.46;97694.54;105081;1273;74477;-26
2022/02/22 06:49:16;;;;;;;5.40;3.00;;;;;;;2.67;68.94;97698.08;105095;1273;61383;-25
2022/02/22 06:51:44;;;;;;;9.00;2.80;;;;;;;2.68;69.17;97697.45;104916;1273;61157;-24
2022/02/22 06:54:15;;;;;;;7.00;2.50;;;;;;;2.71;69.31;97701.54;105118;1272;75413;-24
2022/02/22 06:56:43;;;;;;;7.50;3.60;;;;;;;2.67;69.03;97702.86;104993;1273;74454;-26
2022/02/22 06:59:32;;;;;;;3.60;1.90;;;;;;;2.74;69.01;97708.20;104553;1278;73783;-25
2022/02/22 07:02:00;;;;;;;6.00;3.00;;;;;;;2.84;68.75;97709.52;104574;1277;61293;-25
2022/02/22 07:04:29;;;;;;;4.50;2.20;;;;;;;2.94;68.87;97708.37;104533;1278;61033;-24
2022/02/22 07:07:01;;;;;;;9.10;3.30;;;;;;;2.94;68.08;97706.27;104471;1278;74709;-28
2022/02/22 07:09:29;;;;;;;5.70;2.60;;;;;;;3.04;68.16;97713.63;104583;1277;75772;-25
2022/02/22 07:11:58;;;;;;;3.70;2.00;;;;;;;3.16;68.13;97718.06;104554;1278;74859;-25
2022/02/22 07:14:27;;;;;;;6.20;2.80;;;;;;;3.27;67.43;97716.27;104551;1278;61172;-24
2022/02/22 07:16:56;;;;;;;5.50;2.90;;;;;;;3.45;67.14;97716.84;104584;1278;61191;-24
2022/02/22 07:19:24;;;;;;;5.10;2.40;;;;;;;3.58;66.87;97720.91;104496;1279;75997;-24
2022/02/22 07:21:53;;;;;;;4.50;2.00;;;;;;;3.69;66.31;97720.13;104456;1277;76192;-24
2022/02/22 07:24:21;;;;;;;6.00;2.80;;;;;;;3.88;65.81;97725.19;104310;1278;73231;-24
2022/02/22 07:26:49;;;;;;;6.30;2.60;;;;;;;4.04;65.33;97730.86;104302;1277;61184;-22
2022/02/22 07:29:32;;;;;;;5.00;2.60;;;;;;;4.23;64.43;97729.60;104155;1284;61335;-22
2022/02/22 07:32:01;;;;;;;2.40;1.30;;;;;;;4.29;64.56;97730.77;104251;1283;75449;-23
2022/02/22 07:34:29;;;;;;;7.00;1.80;;;;;;;4.36;64.06;97739.25;104268;1283;75917;-22
2022/02/22 07:36:58;;;;;;;5.30;2.10;;;;;;;4.51;63.50;97739.20;104340;1277;74471;-22
2022/02/22 07:39:26;;;;;;;3.10;1.60;;;;;;;4.67;62.77;97741.05;104303;1277;61148;-23
2022/02/22 07:41:55;;;;;;;4.70;1.80;;;;;;;4.84;63.44;97742.96;104237;1277;61031;-23
2022/02/22 07:44:37;;;;;;;2.90;1.70;;;;;;;4.96;61.99;97740.46;103849;1284;74017;-22
2022/02/22 07:47:05;;;;;;;3.00;1.40;;;;;;;5.10;61.39;97744.70;104186;1284;75401;-22
2022/02/22 07:49:34;;;;;;;5.00;2.50;;;;;;;5.21;61.05;97734.58;104243;1284;73395;-22
2022/02/22 07:52:22;;;;;;;4.40;1.60;;;;;;;5.34;59.31;97739.06;104236;1284;61800;-22
2022/02/22 07:54:50;;;;;;;5.30;2.00;;;;;;;5.44;60.06;97747.56;104182;1284;61221;-22
2022/02/22 07:57:19;;;;;;;1.90;1.10;;;;;;;5.60;59.99;97752.11;104231;1284;75214;-23
2022/02/22 07:59:48;;;;;;;3.00;1.50;;;;;;;5.57;59.09;97749.91;104312;1284;76055;-22
2022/02/22 08:02:16;;;;;;;4.90;1.40;;;;;;;5.55;58.23;97746.50;104299;1284;73550;-22
2022/02/22 08:04:45;;;;;;;2.80;2.10;;;;;;;5.43;57.86;97744.52;104253;1284;62160;-22
2022/02/22 08:07:14;;;;;;;2.40;1.40;;;;;;;5.56;57.67;97742.79;104328;1278;61136;-22
2022/02/22 08:09:42;;;;;;;2.30;1.20;;;;;;;5.53;59.14;97750.95;104263;1277;75382;-23
2022/02/22 08:12:11;;;;;;;1.90;1.20;;;;;;;5.63;57.91;97756.86;104289;1277;75195;-22
2022/02/22 08:14:40;;;;;;;3.40;2.00;;;;;;;5.69;58.10;97753.56;104186;1279;74537;-22
2022/02/22 08:17:09;;;;;;;2.00;1.20;;;;;;;5.84;57.88;97752.86;104756;1273;62730;-22
2022/02/22 08:19:37;;;;;;;6.10;1.80;;;;;;;5.98;57.14;97755.52;104955;1273;61117;-22
2022/02/22 08:22:05;;;;;;;2.50;1.30;;;;;;;6.03;55.94;97756.02;105008;1273;75506;-22
2022/02/22 08:24:34;;;;;;;6.10;1.50;;;;;;;6.22;55.19;97760.30;104762;1273;75340;-22
2022/02/22 08:27:04;;;;;;;1.10;0.90;;;;;;;6.34;54.77;97753.58;104851;1273;72274;-22
2022/02/22 08:29:32;;;;;;;3.10;1.40;;;;;;;6.43;53.65;97757.22;104723;1274;61128;-22
2022/02/22 08:32:00;;;;;;;4.90;1.90;;;;;;;6.53;53.14;97761.48;104993;1273;61099;-24
2022/02/22 08:34:29;;;;;;;2.50;1.50;;;;;;;6.67;52.96;97766.30;104930;1273;75084;-22
2022/02/22 08:36:57;;;;;;;4.20;1.60;;;;;;;6.78;52.45;97766.68;104923;1274;76101;-22
2022/02/22 08:39:26;;;;;;;5.50;1.80;;;;;;;6.90;52.90;97765.75;104781;1273;72297;-22
2022/02/22 08:41:58;;;;;;;3.60;1.70;;;;;;;7.11;52.07;97775.20;104604;1273;61143;-24
2022/02/22 08:44:26;;;;;;;3.20;1.30;;;;;;;7.25;51.07;97774.30;105000;1273;63467;-22
2022/02/22 08:46:55;;;;;;;2.60;1.80;;;;;;;7.30;51.83;97770.62;104888;1273;75497;-22
2022/02/22 08:49:23;;;;;;;3.10;1.90;;;;;;;7.41;51.31;97774.80;104940;1273;76221;-22
2022/02/22 08:51:51;;;;;;;4.20;1.70;;;;;;;7.62;50.79;97773.98;104993;1273;74469;-22
2022/02/22 08:54:40;;;;;;;3.90;1.60;;;;;;;7.53;50.09;97771.48;104982;1273;61110;-24
2022/02/22 08:57:08;;;;;;;3.80;1.40;;;;;;;7.65;49.53;97765.43;104971;1273;61030;-22
2022/02/22 08:59:51;;;;;;;3.60;1.80;;;;;;;7.79;49.45;97774.02;104569;1278;74580;-24
2022/02/22 09:02:19;;;;;;;2.70;1.30;;;;;;;7.98;50.20;97780.98;104461;1277;75980;-23
2022/02/22 09:04:48;;;;;;;2.50;1.30;;;;;;;8.22;49.63;97782.48;104348;1277;74439;-23
2022/02/22 09:07:37;;;;;;;2.90;1.50;;;;;;;8.07;48.65;97776.67;104270;1277;62488;-23
2022/02/22 09:10:07;;;;;;;5.00;1.40;;;;;;;8.16;49.69;97782.44;104584;1277;62083;-23
2022/02/22 09:12:38;;;;;;;3.20;1.70;;;;;;;8.24;48.89;97772.59;104568;1277;74128;-23
2022/02/22 09:15:08;;;;;;;3.50;1.60;;;;;;;8.09;49.07;97766.10;104387;1277;76055;-23
2022/02/22 09:17:38;;;;;;;2.90;1.50;;;;;;;8.14;48.87;97777.59;104514;1277;73368;-23
2022/02/22 09:20:09;;;;;;;4.10;1.60;;;;;;;8.14;49.51;97766.70;104246;1277;61202;-23
2022/02/22 09:22:38;;;;;;;7.70;2.30;;;;;;;8.16;48.38;97771.77;104309;1277;61168;-23
2022/02/22 09:25:10;;;;;;;4.10;1.40;;;;;;;8.30;49.11;97776.16;104369;1277;74520;-23
2022/02/22 09:27:40;;;;;;;5.20;2.10;;;;;;;8.24;48.70;97774.31;104259;1277;76018;-23
2022/02/22 09:30:10;;;;;;;3.80;1.70;;;;;;;8.11;49.54;97767.19;104393;1274;73156;-23
2022/02/22 09:32:39;;;;;;;3.30;1.90;;;;;;;8.20;49.02;97769.11;105081;1274;62134;-23
2022/02/22 09:35:14;;;;;;;3.80;2.00;;;;;;;8.38;48.51;97775.77;104985;1272;61111;-23
2022/02/22 09:37:43;;;;;;;6.40;2.00;;;;;;;8.51;47.84;97781.83;104756;1274;74490;-23
2022/02/22 09:40:13;;;;;;;2.80;1.40;;;;;;;8.39;48.75;97776.77;104902;1271;75793;-23
2022/02/22 09:42:44;;;;;;;2.70;1.40;;;;;;;8.34;48.06;97776.20;104654;1272;72722;-23
2022/02/22 09:45:14;;;;;;;3.30;1.80;;;;;;;8.25;49.43;97781.95;105084;1271;61098;-24
2022/02/22 09:47:44;;;;;;;6.00;2.20;;;;;;;8.34;50.04;97785.63;104653;1273;61716;-23
2022/02/22 09:50:14;;;;;;;5.00;2.00;;;;;;;8.66;49.05;97786.58;104729;1271;75524;-23
2022/02/22 09:52:43;;;;;;;3.20;1.40;;;;;;;8.51;48.24;97780.34;104750;1274;73778;-23
2022/02/22 09:55:12;;;;;;;4.40;1.70;;;;;;;8.18;49.35;97777.81;104878;1271;74107;-23
2022/02/22 09:57:40;;;;;;;6.40;2.40;;;;;;;8.08;49.31;97780.95;104931;1271;62137;-23
2022/02/22 10:00:16;;;;;;;6.00;2.00;;;;;;;8.19;49.32;97779.81;105073;1271;61010;-23
2022/02/22 10:02:45;;;;;;;6.10;2.40;;;;;;;8.27;49.04;97781.27;105064;1274;73532;-23
2022/02/22 10:05:18;;;;;;;2.90;1.80;;;;;;;8.30;50.54;97788.48;105126;1271;75948;-23
2022/02/22 10:07:47;;;;;;;5.70;2.20;;;;;;;8.15;48.90;97796.09;104743;1274;73197;-23
2022/02/22 10:10:21;;;;;;;4.00;1.80;;;;;;;7.82;50.50;97799.17;104945;1271;62051;-24
2022/02/22 10:12:55;;;;;;;3.10;2.00;;;;;;;7.66;51.44;97787.49;104840;1273;61160;-23
2022/02/22 10:15:24;;;;;;;4.50;2.00;;;;;;;7.81;50.42;97781.48;104940;1273;74639;-23
2022/02/22 10:17:53;;;;;;;5.20;2.30;;;;;;;7.38;51.08;97778.38;105125;1273;75046;-21
2022/02/22 10:20:22;;;;;;;4.60;2.20;;;;;;;7.29;52.19;97786.23;105011;1273;74706;-22
2022/02/22 10:22:53;;;;;;;4.50;2.10;;;;;;;7.85;50.50;97781.50;105073;1273;61207;-23
2022/02/22 10:25:23;;;;;;;5.40;2.20;;;;;;;8.30;50.46;97773.05;104795;1273;61136;-22
2022/02/22 10:27:53;;;;;;;9.00;2.50;;;;;;;8.72;48.54;97789.10;104779;1273;75758;-22
2022/02/22 10:30:27;;;;;;;1.80;1.10;;;;;;;8.99;48.80;97789.54;104685;1273;75889;-23
2022/02/22 10:32:55;;;;;;;2.20;1.50;;;;;;;9.03;47.24;97763.07;104924;1273;74347;-22
2022/02/22 10:35:30;;;;;;;5.10;1.80;;;;;;;9.00;47.88;97774.52;104707;1273;61138;-22
2022/02/22 10:38:23;;;;;;;3.30;1.80;;;;;;;9.35;48.26;97789.58;104659;1272;61561;-24
2022/02/22 10:41:05;;;;;;;3.10;1.70;;;;;;;9.40;47.19;97793.58;104818;1273;74698;-24
2022/02/22 10:43:36;;;;;;;3.90;1.80;;;;;;;9.40;47.35;97796.36;104984;1273;76187;-23
2022/02/22 10:46:11;;;;;;;5.20;2.60;;;;;;;9.20;48.07;97789.30;104672;1273;72409;-25
2022/02/22 10:48:41;;;;;;;4.80;2.40;;;;;;;9.33;48.75;97794.41;104641;1273;61157;-22
2022/02/22 10:51:12;;;;;;;4.40;2.30;;;;;;;9.55;46.57;97803.13;104866;1273;61349;-24
2022/02/22 10:53:45;;;;;;;3.00;1.90;;;;;;;9.31;47.13;97798.82;104774;1273;73032;-23
2022/02/22 10:56:15;;;;;;;3.10;1.80;;;;;;;9.06;47.66;97789.92;104935;1272;73567;-23
2022/02/22 10:58:45;;;;;;;6.80;2.30;;;;;;;8.54;48.79;97795.80;104860;1273;74797;-23
2022/02/22 11:01:19;;;;;;;3.60;2.20;;;;;;;8.44;49.94;97793.08;105009;1273;61169;-23
2022/02/22 11:03:48;;;;;;;3.50;1.60;;;;;;;8.10;49.57;97792.20;104980;1273;61178;-23
2022/02/22 11:06:19;;;;;;;3.70;1.90;;;;;;;7.95;51.32;97797.87;105136;1272;75604;-23
2022/02/22 11:08:51;;;;;;;;;;;;;;;8.35;50.11;97800.25;104930;1273;76157;-23
2022/02/22 11:12:01;;;;;;;3.80;1.70;;;;;;;8.81;50.56;97813.89;104983;1272;76071;-23
2022/02/22 11:14:32;;;;;;;4.30;2.00;;;;;;;8.30;52.90;97815.66;105003;1273;61121;-23
2022/02/22 11:17:04;;;;;;;5.10;2.30;;;;;;;7.85;53.96;97821.20;105013;1273;62221;-24
2022/02/22 11:19:35;;;;;;;11.50;1.90;;;;;;;7.77;52.62;97818.64;104814;1273;75533;-23
2022/02/22 11:22:12;;;;;;;3.60;2.00;;;;;;;7.61;53.93;97817.09;104863;1273;76376;-23
2022/02/22 11:24:54;;;;;;;3.90;1.70;;;;;;;7.42;54.50;97815.52;104754;1273;74472;-23
2022/02/22 11:27:33;;;;;;;4.10;1.60;;;;;;;7.70;54.29;97813.70;104859;1273;61808;-23
2022/02/22 11:30:07;;;;;;;3.90;1.80;;;;;;;7.68;53.87;97819.90;104700;1273;62370;-23
2022/02/22 11:33:06;;;;;;;4.60;2.10;;;;;;;7.31;54.76;97810.91;104729;1273;74577;-23
2022/02/22 11:35:57;;;;;;;3.80;1.90;;;;;;;6.85;56.99;97816.97;105004;1273;75205;-23
2022/02/22 11:38:43;;;;;;;5.70;1.80;;;;;;;6.66;57.69;97817.64;105003;1273;72926;-23
2022/02/22 11:41:41;;;;;;;4.60;2.20;;;;;;;6.65;57.83;97828.41;105010;1273;61147;-23
2022/02/22 11:44:15;;;;;;;3.50;1.70;;;;;;;6.71;57.30;97822.45;104767;1273;62041;-23
2022/02/22 11:46:47;;;;;;;6.10;2.00;;;;;;;6.60;56.44;97818.48;104909;1273;75655;-22
2022/02/22 11:49:31;;;;;;;5.10;1.60;;;;;;;6.65;56.59;97826.73;104624;1273;74932;-22